X  CloseMetar Aviation Weather Data     YMAV Avalon

Temperature

22°C Temperature

17°C Dewpoint

73% Humidity



Wind

24 KM/H

15 MPH

 7 M/S

13 KTS



190°
Due South
Current Conditions

Clear Clear
Pressure 1008.92 (hPa) - 29.79 (in)
Visibility 6.2 (mi) - 10 (km)
Airport
Airport-code YMAV

Location Avalon 44 (km)

Metar:
YMAV 170730Z AUTO 19013KT 9999 // NCD 22/17 Q1009 RF00.0/000.0

Time: 17-02-2020 18:30